Time;durP1;ratioP1;P1;durP2;ratioP2;P2;SDS_P1;SDS_P2;PMS_P1;PMS_P2;Temp;Humidity;BMP_temperature;BMP_pressure;BME280_temperature;BME280_humidity;BME280_pressure;Samples;Min_cycle;Max_cycle;Signal;HPM_P1;HPM_P2
2022/03/13 00:00:59;;;;;;;12.77;7.28;;;;;;;0.78;27.85;98444.88;12708786;23;20022;-78
2022/03/13 00:06:27;;;;;;;13.13;7.38;;;;;;;0.77;28.20;98439.88;12668236;23;20021;-78
2022/03/13 00:11:51;;;;;;;14.10;6.90;;;;;;;0.74;28.53;98438.16;12689111;23;20450;-78
2022/03/13 00:17:15;;;;;;;14.00;6.80;;;;;;;0.70;28.65;98432.94;12708048;23;20018;-78
2022/03/13 00:22:37;;;;;;;13.80;6.80;;;;;;;0.66;28.36;98437.97;12667040;23;20073;-78
2022/03/13 00:27:58;;;;;;;11.57;6.40;;;;;;;0.56;28.52;98434.03;12647703;23;20018;-79
2022/03/13 00:33:20;;;;;;;16.75;7.53;;;;;;;0.49;28.97;98435.34;12687424;23;20014;-78
2022/03/13 00:38:41;;;;;;;12.52;7.25;;;;;;;0.37;28.48;98420.19;12647365;23;20521;-78
2022/03/13 00:44:01;;;;;;;13.30;7.72;;;;;;;0.30;29.31;98411.75;12687440;23;20045;-79
2022/03/13 00:49:22;;;;;;;12.35;6.40;;;;;;;0.25;29.15;98405.78;12688328;23;20487;-78
2022/03/13 00:54:44;;;;;;;15.73;8.10;;;;;;;0.19;30.14;98410.56;12665590;23;20018;-78
2022/03/13 01:00:06;;;;;;;12.18;6.75;;;;;;;0.12;30.35;98413.13;12666815;23;20018;-78
2022/03/13 01:05:27;;;;;;;11.25;5.90;;;;;;;0.04;29.58;98401.16;12627142;23;20101;-78
2022/03/13 01:10:50;;;;;;;10.20;6.40;;;;;;;0.00;30.41;98401.44;12689085;23;20025;-78
2022/03/13 01:16:33;;;;;;;15.02;6.82;;;;;;;-0.01;30.15;98399.94;12667488;23;20029;-78
2022/03/13 01:21:54;;;;;;;12.07;6.20;;;;;;;-0.15;31.52;98390.03;12668460;23;20024;-78
2022/03/13 01:27:15;;;;;;;10.50;6.18;;;;;;;-0.14;30.95;98380.56;12686447;23;20017;-78
2022/03/13 01:32:37;;;;;;;10.55;5.88;;;;;;;-0.16;30.96;98383.06;12647442;23;20061;-78
2022/03/13 01:37:58;;;;;;;11.25;6.93;;;;;;;-0.25;31.97;98375.13;12666209;23;20429;-78
2022/03/13 01:43:19;;;;;;;14.05;6.65;;;;;;;-0.28;32.08;98370.66;12646967;23;20024;-77
2022/03/13 01:48:57;;;;;;;12.93;6.70;;;;;;;-0.38;32.17;98357.22;12686997;23;20460;-78
2022/03/13 01:54:18;;;;;;;12.07;6.65;;;;;;;-0.44;32.28;98359.25;12629548;23;20014;-79
2022/03/13 01:59:39;;;;;;;12.13;6.50;;;;;;;-0.49;32.02;98354.50;12647488;23;20373;-78
2022/03/13 02:05:00;;;;;;;12.45;6.30;;;;;;;-0.45;32.37;98357.75;12623031;23;20049;-78
2022/03/13 02:10:20;;;;;;;11.65;6.78;;;;;;;-0.43;32.26;98357.25;12607959;23;20025;-78
2022/03/13 02:15:41;;;;;;;13.65;6.20;;;;;;;-0.40;32.57;98358.97;12646708;23;20572;-78
2022/03/13 02:21:03;;;;;;;13.10;6.65;;;;;;;-0.43;32.67;98355.25;12605835;23;20500;-78
2022/03/13 02:26:24;;;;;;;11.90;6.05;;;;;;;-0.48;32.21;98353.28;12624758;23;20022;-78
2022/03/13 02:31:45;;;;;;;12.57;6.57;;;;;;;-0.53;32.23;98339.59;12604643;23;20018;-79
2022/03/13 02:37:33;;;;;;;11.27;6.55;;;;;;;-0.69;34.00;98341.13;12608146;23;20029;-78
2022/03/13 02:42:58;;;;;;;11.32;6.43;;;;;;;-0.78;33.66;98339.41;12632594;23;20014;-79
2022/03/13 02:48:19;;;;;;;12.55;7.45;;;;;;;-0.88;33.03;98336.19;12608553;23;20018;-79
2022/03/13 02:53:40;;;;;;;12.00;6.65;;;;;;;-0.95;33.41;98331.25;12631163;23;20054;-80
2022/03/13 02:59:01;;;;;;;10.27;6.05;;;;;;;-0.96;33.70;98338.00;12631466;23;20018;-81
2022/03/13 03:04:22;;;;;;;10.60;5.93;;;;;;;-0.96;33.98;98346.22;12693300;23;20117;-80
2022/03/13 03:09:43;;;;;;;11.10;6.32;;;;;;;-0.93;33.69;98341.72;12690806;23;20074;-80
2022/03/13 03:15:05;;;;;;;11.07;5.78;;;;;;;-1.04;34.59;98341.75;12711661;23;20037;-80
2022/03/13 03:20:25;;;;;;;12.13;5.82;;;;;;;-1.07;34.49;98337.25;12712158;23;20067;-80
2022/03/13 03:25:46;;;;;;;13.13;7.22;;;;;;;-1.07;35.29;98343.47;12691997;23;20022;-80
2022/03/13 03:31:07;;;;;;;10.48;5.80;;;;;;;-1.09;34.73;98332.28;12732522;23;20017;-80
2022/03/13 03:36:28;;;;;;;12.13;6.35;;;;;;;-1.20;34.50;98329.56;12732450;23;20018;-80
2022/03/13 03:41:50;;;;;;;11.60;6.28;;;;;;;-1.21;34.79;98330.81;12733623;23;20045;-81
2022/03/13 03:47:10;;;;;;;12.13;5.70;;;;;;;-1.27;35.11;98321.84;12735570;23;20093;-80
2022/03/13 03:52:31;;;;;;;10.88;6.70;;;;;;;-1.25;35.11;98327.59;12693430;23;20033;-80
2022/03/13 03:57:53;;;;;;;11.77;6.28;;;;;;;-1.38;34.97;98336.31;12734319;23;20100;-80
2022/03/13 04:03:14;;;;;;;12.20;6.47;;;;;;;-1.37;35.15;98337.06;12706144;23;20022;-80
2022/03/13 04:08:36;;;;;;;11.85;5.68;;;;;;;-1.40;35.90;98343.53;12716972;23;20029;-80
2022/03/13 04:13:57;;;;;;;9.70;5.28;;;;;;;-1.45;35.60;98347.75;12715552;23;20018;-80
2022/03/13 04:19:19;;;;;;;11.90;6.72;;;;;;;-1.40;35.99;98344.28;12719683;23;20452;-80
2022/03/13 04:24:40;;;;;;;11.13;6.50;;;;;;;-1.40;36.01;98343.53;12721068;23;20037;-80
2022/03/13 04:30:02;;;;;;;9.35;5.53;;;;;;;-1.40;35.76;98346.28;12741608;23;20218;-80
2022/03/13 04:35:23;;;;;;;9.80;5.88;;;;;;;-1.38;36.44;98324.59;12678687;23;20092;-80
2022/03/13 04:40:44;;;;;;;11.73;6.47;;;;;;;-1.42;36.11;98337.81;12698920;23;20018;-80
2022/03/13 04:46:05;;;;;;;12.68;6.38;;;;;;;-1.47;36.42;98339.31;12719048;23;20506;-80
2022/03/13 04:51:27;;;;;;;10.60;4.97;;;;;;;-1.49;36.52;98333.59;12719672;23;20018;-80
2022/03/13 04:56:48;;;;;;;8.93;5.80;;;;;;;-1.49;36.57;98337.06;12739900;23;20017;-80
2022/03/13 05:02:09;;;;;;;11.30;5.95;;;;;;;-1.47;36.18;98339.31;12718833;23;20127;-81
2022/03/13 05:07:30;;;;;;;10.60;5.82;;;;;;;-1.50;36.43;98343.78;12718007;23;20021;-80
2022/03/13 05:12:53;;;;;;;10.32;5.85;;;;;;;-1.50;36.68;98341.06;12706691;23;20061;-81
2022/03/13 05:18:14;;;;;;;13.57;6.35;;;;;;;-1.52;36.16;98346.28;12710228;23;20021;-81
2022/03/13 05:23:35;;;;;;;8.70;5.18;;;;;;;-1.49;36.02;98350.75;12748183;23;20028;-80
2022/03/13 05:28:57;;;;;;;11.68;5.65;;;;;;;-1.43;36.80;98350.03;12714956;23;20009;-80
2022/03/13 05:34:17;;;;;;;9.00;5.40;;;;;;;-1.14;36.17;98359.72;12732941;23;20045;-81
2022/03/13 05:39:38;;;;;;;10.73;5.80;;;;;;;-0.16;35.34;98372.81;12734621;23;20024;-81
2022/03/13 05:44:59;;;;;;;12.73;6.93;;;;;;;1.53;32.65;98374.91;12728850;23;20020;-82
2022/03/13 05:50:21;;;;;;;11.98;6.15;;;;;;;3.16;30.89;98380.22;12729170;23;20017;-81
2022/03/13 05:55:43;;;;;;;9.85;6.07;;;;;;;5.00;29.00;98383.03;12720264;23;20076;-82
2022/03/13 06:01:05;;;;;;;11.55;6.25;;;;;;;6.65;28.02;98395.25;12719964;23;20025;-79
2022/03/13 06:06:26;;;;;;;10.43;6.88;;;;;;;6.28;27.73;98386.34;12681266;23;20072;-78
2022/03/13 06:11:47;;;;;;;9.43;6.35;;;;;;;6.46;26.17;98390.03;12679153;23;20064;-78
2022/03/13 06:17:09;;;;;;;9.77;6.63;;;;;;;8.51;24.45;98393.78;12675641;23;20044;-78
2022/03/13 06:22:30;;;;;;;9.10;6.40;;;;;;;10.18;21.48;98385.88;12681208;23;20321;-78
2022/03/13 06:27:51;;;;;;;12.38;7.00;;;;;;;10.93;21.66;98393.06;12738618;23;20410;-77
2022/03/13 06:33:12;;;;;;;9.73;6.55;;;;;;;11.58;20.18;98392.31;12738920;23;20332;-78
2022/03/13 06:38:33;;;;;;;9.70;6.18;;;;;;;11.89;17.96;98401.66;12739246;23;20398;-79
2022/03/13 06:43:54;;;;;;;9.23;6.50;;;;;;;12.94;18.68;98393.63;12719309;23;20348;-78
2022/03/13 06:49:15;;;;;;;9.70;6.60;;;;;;;14.26;16.28;98393.91;12698209;23;20384;-78
2022/03/13 06:54:36;;;;;;;9.07;6.35;;;;;;;14.53;15.02;98404.75;12719162;23;20027;-78
2022/03/13 07:00:00;;;;;;;9.77;6.43;;;;;;;13.11;16.84;98398.25;12718301;23;20432;-78
2022/03/13 07:05:22;;;;;;;10.02;6.25;;;;;;;13.44;15.97;98390.00;12708556;23;20021;-78
2022/03/13 07:10:44;;;;;;;8.32;5.90;;;;;;;17.18;14.98;98397.38;12699621;23;20018;-78
2022/03/13 07:16:07;;;;;;;8.20;5.97;;;;;;;19.82;13.30;98397.75;12696263;23;20323;-79
2022/03/13 07:21:28;;;;;;;;;;;;;;;19.06;11.39;98393.03;12698660;23;20432;-81
2022/03/13 07:26:50;;;;;;;11.23;5.72;;;;;;;16.78;13.63;98396.69;12737395;23;20243;-79
2022/03/13 07:32:17;;;;;;;14.90;6.00;;;;;;;15.93;14.88;98389.16;12699967;23;20010;-78
2022/03/13 07:37:37;;;;;;;6.35;5.53;;;;;;;16.03;14.92;98389.75;12695518;23;20014;-77
2022/03/13 07:42:59;;;;;;;8.52;5.60;;;;;;;16.57;15.55;98391.28;12739275;23;20013;-80
2022/03/13 07:48:19;;;;;;;6.53;5.07;;;;;;;18.71;14.56;98385.81;12720463;23;20025;-81
2022/03/13 07:53:40;;;;;;;6.25;4.90;;;;;;;24.06;11.35;98383.34;12700145;23;20021;-80
2022/03/13 07:59:01;;;;;;;7.07;5.00;;;;;;;28.30;8.14;98382.34;12700017;23;20025;-81
2022/03/13 08:04:21;;;;;;;;;;;;;;;31.54;4.50;98383.38;12699555;23;20021;-80
2022/03/13 08:09:42;;;;;;;6.72;4.53;;;;;;;31.61;4.76;98381.91;12719617;23;19920;-80
2022/03/13 08:15:09;;;;;;;5.93;4.57;;;;;;;32.72;4.20;98377.38;12699616;23;20017;-82
2022/03/13 08:20:30;;;;;;;6.47;4.43;;;;;;;33.52;3.98;98373.53;12679517;23;20025;-82
2022/03/13 08:25:51;;;;;;;10.13;5.00;;;;;;;33.91;3.56;98379.47;12698933;23;20072;-80
2022/03/13 08:31:11;;;;;;;7.13;4.82;;;;;;;34.94;3.06;98373.34;12659257;23;20021;-82
2022/03/13 08:36:37;;;;;;;7.45;4.88;;;;;;;33.21;3.05;98376.81;12679559;23;20088;-82
2022/03/13 08:41:57;;;;;;;18.45;6.88;;;;;;;32.17;3.54;98369.22;12699745;23;20022;-81
2022/03/13 08:47:19;;;;;;;8.23;5.25;;;;;;;32.97;3.22;98374.22;12698775;23;20024;-82
2022/03/13 08:52:42;;;;;;;6.72;5.38;;;;;;;33.73;3.32;98368.16;12719420;23;20013;-81
2022/03/13 08:58:03;;;;;;;7.70;5.50;;;;;;;36.21;2.77;98359.59;12678961;23;20025;-81
2022/03/13 09:03:28;;;;;;;24.15;7.22;;;;;;;36.41;2.61;98362.00;12670465;23;20025;-80
2022/03/13 09:08:49;;;;;;;6.85;5.15;;;;;;;36.09;2.70;98372.22;12720191;23;20020;-82
2022/03/13 09:14:10;;;;;;;5.30;4.25;;;;;;;36.26;2.13;98373.25;12658346;23;20025;-81
2022/03/13 09:19:31;;;;;;;8.32;4.20;;;;;;;35.81;2.46;98364.91;12698116;23;20088;-81
2022/03/13 09:24:54;;;;;;;5.65;4.72;;;;;;;37.71;2.20;98363.34;12658369;23;20021;-81
2022/03/13 09:30:15;;;;;;;7.13;4.15;;;;;;;39.54;1.15;98362.00;12675826;23;20021;-81
2022/03/13 09:35:36;;;;;;;7.03;3.78;;;;;;;39.78;1.31;98361.78;12693679;23;20021;-81
2022/03/13 09:40:57;;;;;;;4.05;3.33;;;;;;;39.14;1.21;98336.53;12695575;23;20021;-80
2022/03/13 09:46:19;;;;;;;11.68;4.30;;;;;;;37.70;1.52;98345.16;12697113;23;20024;-81
2022/03/13 09:51:40;;;;;;;6.13;3.80;;;;;;;38.00;1.42;98340.56;12697772;23;20516;-81
2022/03/13 09:57:05;;;;;;;6.07;3.72;;;;;;;36.47;1.58;98329.13;12677807;23;20027;-81
2022/03/13 10:02:38;;;;;;;6.05;3.67;;;;;;;37.38;1.70;98331.63;12657521;23;20052;-81
2022/03/13 10:08:01;;;;;;;4.78;3.88;;;;;;;35.21;2.33;98319.06;12718082;23;20076;-81
2022/03/13 10:13:43;;;;;;;4.18;3.78;;;;;;;37.62;1.93;98321.41;12677727;23;20014;-81
2022/03/13 10:19:17;;;;;;;4.43;3.80;;;;;;;38.35;1.21;98307.34;12698858;23;20021;-81
2022/03/13 10:24:40;;;;;;;7.72;3.40;;;;;;;37.72;1.25;98300.69;12718090;23;20018;-81
2022/03/13 10:30:04;;;;;;;5.05;3.60;;;;;;;36.62;1.80;98301.81;12677938;23;20018;-82
2022/03/13 10:35:24;;;;;;;5.80;3.65;;;;;;;38.47;1.43;98286.47;12697403;23;20032;-82
2022/03/13 10:40:55;;;;;;;4.75;3.33;;;;;;;37.95;1.49;98301.41;12657373;23;20045;-81
2022/03/13 10:46:26;;;;;;;5.03;3.47;;;;;;;39.28;1.05;98290.78;12696309;23;20028;-82
2022/03/13 10:51:49;;;;;;;6.30;3.60;;;;;;;39.05;1.18;98282.16;12677008;23;20033;-80
2022/03/13 10:57:10;;;;;;;4.05;3.60;;;;;;;38.35;1.31;98273.06;12677237;23;20100;-80
2022/03/13 11:02:32;;;;;;;5.45;3.95;;;;;;;37.22;1.34;98286.97;12690850;23;20028;-78
2022/03/13 11:07:53;;;;;;;5.10;4.07;;;;;;;31.10;3.11;98283.41;12655475;23;20048;-79
2022/03/13 11:13:14;;;;;;;6.13;4.60;;;;;;;26.72;4.38;98270.38;12675487;23;20024;-79
2022/03/13 11:18:37;;;;;;;7.47;5.03;;;;;;;23.73;5.47;98256.41;12693767;23;20028;-78
2022/03/13 11:24:00;;;;;;;5.78;4.80;;;;;;;21.91;6.29;98250.69;12693610;23;20013;-79
2022/03/13 11:29:43;;;;;;;6.05;4.55;;;;;;;20.97;7.09;98238.38;12653769;23;20022;-78
2022/03/13 11:35:16;;;;;;;5.93;4.35;;;;;;;20.58;7.40;98229.22;12696898;23;20013;-82
2022/03/13 11:40:38;;;;;;;7.55;4.70;;;;;;;18.91;7.94;98218.38;12715961;23;20052;-85
2022/03/13 11:46:00;;;;;;;6.10;4.35;;;;;;;18.02;8.48;98213.06;12675577;23;20428;-79
2022/03/13 11:51:28;;;;;;;6.10;4.35;;;;;;;17.05;8.95;98212.69;12695894;23;20021;-79
2022/03/13 11:56:49;;;;;;;5.53;3.70;;;;;;;17.02;8.87;98205.50;12715738;23;20344;-78
2022/03/13 12:02:10;;;;;;;6.70;4.18;;;;;;;16.93;9.43;98200.06;12676047;23;20345;-78
2022/03/13 12:07:31;;;;;;;8.00;4.10;;;;;;;16.81;9.57;98189.66;12715602;23;20020;-78
2022/03/13 12:13:05;;;;;;;6.20;3.70;;;;;;;17.05;9.58;98187.31;12757942;23;20072;-75
2022/03/13 12:18:27;;;;;;;8.20;3.50;;;;;;;16.44;9.73;98178.59;12695457;23;20028;-78
2022/03/13 12:23:48;;;;;;;5.27;3.50;;;;;;;16.10;9.21;98171.16;12676812;23;20026;-76
2022/03/13 12:29:14;;;;;;;5.97;3.00;;;;;;;15.66;9.09;98168.16;12718880;23;20305;-76
2022/03/13 12:34:36;;;;;;;4.93;3.47;;;;;;;15.50;9.04;98164.44;12724463;23;20013;-78
2022/03/13 12:40:00;;;;;;;5.10;3.38;;;;;;;15.46;9.26;98150.16;12687530;23;20025;-77
2022/03/13 12:45:21;;;;;;;4.10;2.83;;;;;;;15.14;9.22;98146.97;12701429;23;20088;-78
2022/03/13 12:50:47;;;;;;;6.28;2.65;;;;;;;14.77;9.32;98152.63;12722464;23;20020;-77
2022/03/13 12:56:08;;;;;;;5.40;2.78;;;;;;;14.48;9.52;98143.91;12701005;23;20022;-77
2022/03/13 13:01:28;;;;;;;3.85;2.40;;;;;;;14.46;9.68;98136.06;12721095;23;20021;-77
2022/03/13 13:06:50;;;;;;;5.75;3.17;;;;;;;14.76;9.65;98133.56;12721229;23;20021;-77
2022/03/13 13:12:12;;;;;;;4.68;2.75;;;;;;;14.98;9.97;98137.66;12721064;23;20018;-77
2022/03/13 13:17:34;;;;;;;5.47;2.90;;;;;;;14.91;9.95;98137.91;12726812;23;20017;-78
2022/03/13 13:23:11;;;;;;;5.70;3.10;;;;;;;15.07;10.02;98131.16;12726857;23;20077;-78
2022/03/13 13:28:31;;;;;;;5.30;3.25;;;;;;;14.82;9.90;98136.72;12753441;23;20029;-80
2022/03/13 13:33:52;;;;;;;3.53;2.85;;;;;;;14.15;10.15;98155.25;12771863;23;20395;-77
2022/03/13 13:39:13;;;;;;;5.05;2.53;;;;;;;14.12;10.17;98128.41;12790955;23;20005;-79
2022/03/13 13:44:34;;;;;;;4.47;2.70;;;;;;;13.97;10.29;98147.19;12749581;23;20006;-81
2022/03/13 13:49:55;;;;;;;4.47;2.63;;;;;;;13.98;10.38;98120.59;12770111;23;20012;-79
2022/03/13 13:55:23;;;;;;;4.45;3.03;;;;;;;14.15;10.53;98138.41;12790897;23;20028;-82
2022/03/13 14:00:47;;;;;;;3.25;2.55;;;;;;;13.98;10.40;98129.00;12770720;23;20025;-79
2022/03/13 14:06:08;;;;;;;6.15;3.20;;;;;;;13.86;10.55;98127.53;12768732;23;20097;-81
2022/03/13 14:11:28;;;;;;;4.78;3.10;;;;;;;13.78;10.57;98127.78;12728178;23;20082;-80
2022/03/13 14:16:51;;;;;;;4.35;2.92;;;;;;;13.72;10.65;98121.81;12748664;23;20017;-77
2022/03/13 14:22:15;;;;;;;3.88;2.80;;;;;;;13.69;10.81;98123.00;12767785;23;20056;-79
2022/03/13 14:27:37;;;;;;;3.85;2.88;;;;;;;13.63;10.60;98126.19;12746368;23;20005;-80
2022/03/13 14:32:58;;;;;;;6.15;2.92;;;;;;;13.58;11.00;98126.53;12767685;23;20057;-83
2022/03/13 14:38:19;;;;;;;5.90;3.08;;;;;;;13.53;10.93;98133.25;12765802;23;20017;-80
2022/03/13 14:43:40;;;;;;;4.90;2.63;;;;;;;13.22;11.14;98136.97;12745867;23;20048;-79
2022/03/13 14:49:01;;;;;;;3.75;2.65;;;;;;;13.17;11.29;98115.56;12808791;23;20107;-80
2022/03/13 14:54:23;;;;;;;5.38;2.70;;;;;;;13.06;11.33;98122.63;12745426;23;20012;-77
2022/03/13 14:59:43;;;;;;;4.65;2.72;;;;;;;13.01;11.12;98140.50;12785992;23;20021;-81
2022/03/13 15:05:05;;;;;;;4.53;2.60;;;;;;;12.86;11.61;98118.50;12723665;23;20073;-80
2022/03/13 15:10:28;;;;;;;6.18;3.20;;;;;;;12.82;11.76;98129.44;12744525;23;20028;-79
2022/03/13 15:15:50;;;;;;;4.13;2.63;;;;;;;12.63;11.96;98124.72;12744068;23;20094;-81
2022/03/13 15:21:14;;;;;;;3.60;2.80;;;;;;;12.57;12.17;98121.53;12766354;23;20128;-79
2022/03/13 15:26:36;;;;;;;6.53;3.15;;;;;;;12.69;12.10;98130.00;12744821;23;20456;-80
2022/03/13 15:31:57;;;;;;;4.38;2.67;;;;;;;12.63;12.12;98129.59;12786354;23;20073;-80
2022/03/13 15:37:18;;;;;;;3.92;3.00;;;;;;;12.55;12.37;98135.41;12785145;23;20001;-81
2022/03/13 15:42:40;;;;;;;4.15;2.83;;;;;;;12.35;12.41;98131.97;12745564;23;20028;-81
2022/03/13 15:48:01;;;;;;;4.78;3.28;;;;;;;12.23;12.70;98126.31;12747049;23;20065;-80
2022/03/13 15:53:22;;;;;;;9.48;3.97;;;;;;;12.08;12.74;98135.09;12789985;23;20065;-80
2022/03/13 15:58:51;;;;;;;5.45;3.35;;;;;;;11.86;13.45;98133.56;12755310;23;20070;-80
2022/03/13 16:04:17;;;;;;;4.57;3.00;;;;;;;11.70;13.29;98136.69;12739684;23;20041;-81
2022/03/13 16:09:38;;;;;;;6.32;4.18;;;;;;;11.47;13.55;98142.03;12753991;23;20005;-82
2022/03/13 16:15:00;;;;;;;5.70;3.20;;;;;;;11.36;13.67;98145.47;12757239;23;20026;-83
2022/03/13 16:20:35;;;;;;;5.95;3.70;;;;;;;11.18;14.10;98144.88;12829372;23;20051;-78
2022/03/13 16:25:57;;;;;;;4.53;3.38;;;;;;;11.11;14.29;98154.19;12859823;23;20040;-79
2022/03/13 16:31:18;;;;;;;6.85;3.75;;;;;;;10.91;14.22;98153.47;12777749;23;20032;-80
2022/03/13 16:36:42;;;;;;;7.10;4.03;;;;;;;10.77;14.44;98163.59;12775337;23;20024;-79
2022/03/13 16:42:04;;;;;;;7.88;4.50;;;;;;;10.59;14.74;98177.66;12836005;23;20048;-83
2022/03/13 16:47:24;;;;;;;6.07;3.88;;;;;;;10.45;14.47;98178.69;12812486;23;20040;-81
2022/03/13 16:52:46;;;;;;;5.53;3.60;;;;;;;10.26;15.00;98190.53;12838392;23;20044;-81
2022/03/13 16:58:07;;;;;;;6.10;4.03;;;;;;;10.10;15.03;98189.25;12838417;23;20026;-81
2022/03/13 17:03:28;;;;;;;5.38;3.53;;;;;;;9.97;14.71;98198.75;12834998;22;20035;-79
2022/03/13 17:08:50;;;;;;;7.25;4.32;;;;;;;9.82;15.44;98204.53;12879654;23;20008;-81
2022/03/13 17:14:12;;;;;;;6.70;4.68;;;;;;;9.68;15.53;98202.13;12879147;22;20004;-77
2022/03/13 17:19:34;;;;;;;7.57;4.68;;;;;;;9.56;15.72;98206.75;12848076;23;20120;-79
2022/03/13 17:24:55;;;;;;;8.50;4.32;;;;;;;9.40;15.83;98211.78;12882793;23;20024;-79
2022/03/13 17:30:16;;;;;;;10.10;4.18;;;;;;;9.29;16.25;98220.66;12880068;23;20068;-81
2022/03/13 17:35:37;;;;;;;10.98;4.72;;;;;;;9.11;16.40;98219.19;12898825;23;20055;-80
2022/03/13 17:40:59;;;;;;;7.80;4.78;;;;;;;8.94;16.48;98222.69;12876387;23;20004;-78
2022/03/13 17:46:20;;;;;;;11.07;5.00;;;;;;;8.82;16.83;98222.44;12911974;23;20057;-80
2022/03/13 17:51:40;;;;;;;8.02;5.10;;;;;;;8.69;16.79;98236.69;12869022;23;20060;-79
2022/03/13 17:57:01;;;;;;;9.05;4.97;;;;;;;8.60;16.95;98235.28;12892273;23;20017;-78
2022/03/13 18:02:22;;;;;;;9.95;5.15;;;;;;;8.56;16.94;98245.31;12817706;23;20017;-77
2022/03/13 18:07:43;;;;;;;7.75;5.00;;;;;;;8.46;17.29;98248.00;12844026;23;20016;-78
2022/03/13 18:13:04;;;;;;;8.32;5.05;;;;;;;8.32;17.25;98241.97;12801756;23;20342;-79
2022/03/13 18:18:24;;;;;;;21.52;11.55;;;;;;;8.26;17.39;98252.56;12797805;23;20025;-77
2022/03/13 18:23:46;;;;;;;7.00;5.18;;;;;;;8.12;17.79;98259.72;12820655;23;20039;-77
2022/03/13 18:29:06;;;;;;;11.45;5.35;;;;;;;8.07;17.79;98259.94;12799163;23;20016;-77
2022/03/13 18:34:27;;;;;;;10.73;5.50;;;;;;;8.01;18.08;98262.97;12841342;23;20539;-78
2022/03/13 18:39:52;;;;;;;8.67;5.50;;;;;;;7.92;18.29;98269.13;12829166;23;20013;-80
2022/03/13 18:45:13;;;;;;;10.70;5.97;;;;;;;7.80;18.61;98273.63;12888922;23;20052;-79
2022/03/13 18:50:40;;;;;;;7.28;5.18;;;;;;;7.70;18.65;98265.88;12845099;23;20057;-79
2022/03/13 18:56:01;;;;;;;12.18;7.43;;;;;;;7.58;18.60;98264.09;12841369;23;20017;-78
2022/03/13 19:01:23;;;;;;;10.57;5.40;;;;;;;7.47;19.03;98268.03;12822189;23;20064;-77
2022/03/13 19:06:44;;;;;;;11.00;6.50;;;;;;;7.39;18.98;98273.59;12840590;23;20024;-78
2022/03/13 19:12:10;;;;;;;10.70;5.63;;;;;;;7.34;19.41;98291.22;12800328;23;20335;-77
2022/03/13 19:17:40;;;;;;;;;;;;;;;7.32;19.66;98277.16;12787057;23;20021;-79
2022/03/13 19:23:04;;;;;;;12.02;6.20;;;;;;;7.24;19.47;98287.56;12819826;23;19923;-78
2022/03/13 19:28:25;;;;;;;9.73;6.13;;;;;;;7.14;19.64;98287.41;12847248;23;20020;-80
2022/03/13 19:33:46;;;;;;;10.93;6.15;;;;;;;7.03;19.76;98290.53;12844904;23;20020;-78
2022/03/13 19:39:07;;;;;;;10.25;6.40;;;;;;;6.95;19.65;98292.63;12848490;23;20016;-78
2022/03/13 19:44:29;;;;;;;16.13;7.55;;;;;;;6.87;20.14;98300.19;12824444;23;20013;-77
2022/03/13 19:49:50;;;;;;;13.30;7.50;;;;;;;6.76;20.77;98295.78;12845513;23;20067;-76
2022/03/13 19:55:11;;;;;;;11.80;7.35;;;;;;;6.66;21.13;98302.41;12843595;23;20012;-77
2022/03/13 20:00:32;;;;;;;15.52;7.78;;;;;;;6.57;21.21;98312.78;12823854;23;20019;-76
2022/03/13 20:05:53;;;;;;;11.95;7.40;;;;;;;6.51;21.58;98303.91;12827280;23;20008;-79
2022/03/13 20:11:16;;;;;;;10.60;6.57;;;;;;;6.43;21.67;98303.16;12827672;23;20072;-76
2022/03/13 20:16:37;;;;;;;11.80;7.18;;;;;;;6.39;21.27;98302.78;12843712;23;20072;-80
2022/03/13 20:21:58;;;;;;;14.07;7.90;;;;;;;6.26;21.77;98302.94;12897518;23;20017;-79
2022/03/13 20:27:20;;;;;;;11.48;7.07;;;;;;;6.15;21.53;98303.28;12841607;22;20000;-79
2022/03/13 20:32:41;;;;;;;11.50;6.93;;;;;;;6.07;21.91;98308.09;12866746;23;20012;-79
2022/03/13 20:38:07;;;;;;;11.43;7.35;;;;;;;5.96;22.00;98307.13;12853207;23;20064;-80
2022/03/13 20:43:28;;;;;;;11.43;6.93;;;;;;;5.91;22.14;98313.59;12847579;23;20027;-79
2022/03/13 20:48:50;;;;;;;12.32;6.78;;;;;;;5.84;22.41;98311.50;12817808;23;20040;-79
2022/03/13 20:54:11;;;;;;;11.05;7.03;;;;;;;5.81;21.97;98311.88;12873005;23;20013;-79
2022/03/13 20:59:32;;;;;;;10.95;6.82;;;;;;;5.78;22.04;98301.88;12808837;23;20047;-81
2022/03/13 21:04:53;;;;;;;12.00;6.97;;;;;;;5.66;21.92;98307.75;12885934;23;20052;-80
2022/03/13 21:10:18;;;;;;;11.18;7.20;;;;;;;5.54;22.51;98308.63;12860187;22;20009;-79
2022/03/13 21:15:39;;;;;;;11.32;7.05;;;;;;;5.44;22.33;98308.41;12861398;22;20004;-81
2022/03/13 21:21:00;;;;;;;11.15;6.78;;;;;;;5.30;22.58;98304.25;12901041;22;20008;-79
2022/03/13 21:26:21;;;;;;;9.82;6.05;;;;;;;5.28;22.04;98315.88;12900695;22;20027;-81
2022/03/13 21:31:42;;;;;;;10.63;6.70;;;;;;;5.18;22.31;98310.09;12880171;22;20076;-79
2022/03/13 21:37:03;;;;;;;11.00;6.70;;;;;;;5.07;22.38;98313.16;12879880;22;20052;-78
2022/03/13 21:42:25;;;;;;;11.35;6.13;;;;;;;5.05;21.88;98309.47;12899477;22;20017;-76
2022/03/13 21:47:46;;;;;;;10.60;6.35;;;;;;;5.00;22.70;98302.06;12899435;22;20044;-77
2022/03/13 21:53:07;;;;;;;10.98;5.90;;;;;;;4.86;22.55;98304.91;12857404;22;20016;-78
2022/03/13 21:58:29;;;;;;;11.85;6.15;;;;;;;4.82;22.91;98301.00;12898625;22;20040;-78
2022/03/13 22:03:52;;;;;;;12.45;6.38;;;;;;;4.85;22.66;98295.16;12867841;22;20012;-79
2022/03/13 22:09:15;;;;;;;11.00;6.72;;;;;;;4.79;22.96;98299.31;12857478;22;20013;-77
2022/03/13 22:14:38;;;;;;;15.00;6.55;;;;;;;4.75;23.11;98291.38;12899217;22;20027;-77
2022/03/13 22:20:00;;;;;;;10.82;6.68;;;;;;;4.66;22.99;98289.09;12881663;22;20012;-76
2022/03/13 22:25:21;;;;;;;13.05;6.95;;;;;;;4.57;22.97;98284.06;12879529;22;20001;-82
2022/03/13 22:30:42;;;;;;;11.10;6.60;;;;;;;4.47;22.96;98291.34;12878917;22;20005;-79
2022/03/13 22:36:03;;;;;;;12.02;7.15;;;;;;;4.39;22.86;98288.50;12858654;23;20009;-80
2022/03/13 22:41:24;;;;;;;12.95;6.63;;;;;;;4.35;23.28;98298.44;12899843;22;20004;-82
2022/03/13 22:46:45;;;;;;;13.45;7.15;;;;;;;4.27;22.63;98303.88;12899727;22;20056;-78
2022/03/13 22:52:08;;;;;;;11.98;7.32;;;;;;;4.19;23.71;98309.34;12920715;22;19996;-79
2022/03/13 22:57:31;;;;;;;12.75;7.18;;;;;;;4.16;23.48;98304.91;12879535;22;20004;-78
2022/03/13 23:02:56;;;;;;;14.32;7.82;;;;;;;4.09;23.34;98311.09;12874638;22;20031;-79
2022/03/13 23:08:17;;;;;;;13.18;8.55;;;;;;;4.05;24.26;98320.97;12878172;22;20005;-81
2022/03/13 23:13:39;;;;;;;16.90;8.13;;;;;;;4.02;23.99;98320.03;12899293;22;20036;-77
2022/03/13 23:19:01;;;;;;;14.25;8.32;;;;;;;3.98;23.95;98309.31;12878145;22;20015;-80
2022/03/13 23:24:23;;;;;;;14.18;8.55;;;;;;;3.96;23.73;98305.63;12878659;22;20004;-82
2022/03/13 23:29:45;;;;;;;13.32;8.52;;;;;;;3.93;24.09;98309.44;12899473;22;20024;-80
2022/03/13 23:35:07;;;;;;;14.15;8.00;;;;;;;3.85;24.50;98317.63;12878726;22;20027;-78
2022/03/13 23:40:29;;;;;;;14.57;8.52;;;;;;;3.81;24.61;98319.25;12879048;22;20005;-80
2022/03/13 23:45:50;;;;;;;13.23;7.65;;;;;;;3.79;24.29;98330.09;12898901;22;20021;-83
2022/03/13 23:51:12;;;;;;;14.27;8.32;;;;;;;3.73;24.09;98314.38;12878060;22;20028;-82
2022/03/13 23:56:36;;;;;;;12.23;7.47;;;;;;;3.59;24.61;98320.47;12878113;22;20004;-79
